Rechercher aéroport 
image banner adimage banner ad
image banner ad

FQNP - Nampula / International

Situé à Nampula, Mozambique

ICAO - FQNP, IATA - APL

Données fournies par Airmate  

Information générale

Coordonnées: S15°6'10" E39°17'4"
Élévation : 1444 feet MSL.
 
Voir autres Aéroports à Nampula Province

Données opérationnelles

Accessible au public
Heure actuelle UTC:
Heure actuelle locale:
Météo
METAR: FQNP 280700Z 20013KT 9999 BKN020 25/22 Q1012 NOSIG
TAF: TAF FQNP 280400Z 2806/2912 35008KT 9999 BKN020 TX31/2813Z TN22/2903Z PROB30 TEMPO 2808/2814 5000 -RADZ BKN015 BECMG 2812/2814 08012KT BECMG 2820/2822 35008KT
Voir NOTAMs / SUP AIP / TFR affectant cet aéroport [VIEW]
Fréquences de communication: [VIEW]

Pistes:

Identifiant RWYQFULongueur (ft)Largeur (ft)SurfaceLDA (ft)
0546°6562148ASP
23226°6562148
1300
3100

Coordonnées de l'aéroport

Adresse: Nampula Mozambique

Vue satellite de FQNP